Time;durP1;ratioP1;P1;durP2;ratioP2;P2;SDS_P1;SDS_P2;PMS_P1;PMS_P2;Temp;Humidity;BMP_temperature;BMP_pressure;BME280_temperature;BME280_humidity;BME280_pressure;Samples;Min_cycle;Max_cycle;Signal;HPM_P1;HPM_P2
2022/08/09 00:02:05;;;;;;;;;;;;;;;;;;5045089;28;19932;-53
2022/08/09 00:04:31;;;;;;;;;;;;;;;;;;5045012;28;19925;-57
2022/08/09 00:06:57;;;;;;;;;;;;;;;;;;5044855;28;19959;-57
2022/08/09 00:09:23;;;;;;;;;;;;;;;;;;5045264;28;20423;-56
2022/08/09 00:11:49;;;;;;;;;;;;;;;;;;5044035;28;19927;-54
2022/08/09 00:14:15;;;;;;;;;;;;;;;;;;5044289;28;19927;-58
2022/08/09 00:16:41;;;;;;;;;;;;;;;;;;5042060;28;19929;-56
2022/08/09 00:19:07;;;;;;;;;;;;;;;;;;5044526;28;19935;-52
2022/08/09 00:21:33;;;;;;;;;;;;;;;;;;5044527;28;19963;-52
2022/08/09 00:23:58;;;;;;;;;;;;;;;;;;5044576;28;19929;-55
2022/08/09 00:26:24;;;;;;;;;;;;;;;;;;5044398;28;19972;-55
2022/08/09 00:28:50;;;;;;;;;;;;;;;;;;5044775;28;20595;-52
2022/08/09 00:31:16;;;;;;;;;;;;;;;;;;5045002;28;19924;-61
2022/08/09 00:33:42;;;;;;;;;;;;;;;;;;5044715;28;20285;-55
2022/08/09 00:36:08;;;;;;;;;;;;;;;;;;5044467;28;20345;-53
2022/08/09 00:38:34;;;;;;;;;;;;;;;;;;5044310;28;20011;-52
2022/08/09 00:41:00;;;;;;;;;;;;;;;;;;5043705;28;20457;-56
2022/08/09 00:43:26;;;;;;;;;;;;;;;;;;5044848;28;19929;-54
2022/08/09 00:45:52;;;;;;;;;;;;;;;;;;5044544;28;20269;-53
2022/08/09 00:48:18;;;;;;;;;;;;;;;;;;5043908;28;19921;-54
2022/08/09 00:50:44;;;;;;;;;;;;;;;;;;5045038;28;19978;-55
2022/08/09 00:53:11;;;;;;;;;;;;;;;;;;5045429;28;19921;-56
2022/08/09 00:55:37;;;;;;;;;;;;;;;;;;5044129;28;20031;-55
2022/08/09 00:58:03;;;;;;;;;;;;;;;;;;5044049;28;20015;-52
2022/08/09 01:00:29;;;;;;;;;;;;;;;;;;5044466;28;19924;-56
2022/08/09 01:02:54;;;;;;;;;;;;;;;;;;5043655;28;19921;-53
2022/08/09 01:05:20;;;;;;;;;;;;;;;;;;5044269;28;19998;-56
2022/08/09 01:07:46;;;;;;;;;;;;;;;;;;5044312;28;19932;-61
2022/08/09 01:10:12;;;;;;;;;;;;;;;;;;5044160;28;19920;-58
2022/08/09 01:12:38;;;;;;;;;;;;;;;;;;5044628;28;20223;-52
2022/08/09 01:15:04;;;;;;;;;;;;;;;;;;5043584;28;19925;-56
2022/08/09 01:17:30;;;;;;;;;;;;;;;;;;5044225;28;19921;-55
2022/08/09 01:19:56;;;;;;;;;;;;;;;;;;5044037;28;19924;-56
2022/08/09 01:22:22;;;;;;;;;;;;;;;;;;5043994;28;19921;-53
2022/08/09 01:24:47;;;;;;;;;;;;;;;;;;5044663;28;19921;-56
2022/08/09 01:27:13;;;;;;;;;;;;;;;;;;5048677;28;19940;-54
2022/08/09 01:29:39;;;;;;;;;;;;;;;;;;5047195;28;19952;-58
2022/08/09 01:32:05;;;;;;;;;;;;;;;;;;5048169;28;20751;-53
2022/08/09 01:34:31;;;;;;;;;;;;;;;;;;5047895;28;19929;-55
2022/08/09 01:36:57;;;;;;;;;;;;;;;;;;5047346;28;19968;-52
2022/08/09 01:39:23;;;;;;;;;;;;;;;;;;5047948;28;20014;-53
2022/08/09 01:41:49;;;;;;;;;;;;;;;;;;5047567;28;19975;-54
2022/08/09 01:44:15;;;;;;;;;;;;;;;;;;5047512;28;19935;-58
2022/08/09 01:46:41;;;;;;;;;;;;;;;;;;5048435;28;20304;-53
2022/08/09 01:49:07;;;;;;;;;;;;;;;;;;5047356;28;19924;-56
2022/08/09 01:51:33;;;;;;;;;;;;;;;;;;5046357;28;20050;-51
2022/08/09 01:53:59;;;;;;;;;;;;;;;;;;5047338;28;19928;-55
2022/08/09 01:56:25;;;;;;;;;;;;;;;;;;5047389;28;19928;-53
2022/08/09 01:58:51;;;;;;;;;;;;;;;;;;5045511;28;20341;-55
2022/08/09 02:01:16;;;;;;;;;;;;;;;;;;5047600;28;19924;-59
2022/08/09 02:03:42;;;;;;;;;;;;;;;;;;5048196;28;19976;-55
2022/08/09 02:06:08;;;;;;;;;;;;;;;;;;5047033;28;20440;-51
2022/08/09 02:08:34;;;;;;;;;;;;;;;;;;5046524;28;19917;-55
2022/08/09 02:11:00;;;;;;;;;;;;;;;;;;5046823;28;19952;-52
2022/08/09 02:13:26;;;;;;;;;;;;;;;;;;5046282;28;19947;-56
2022/08/09 02:15:52;;;;;;;;;;;;;;;;;;5046660;28;19921;-53
2022/08/09 02:18:18;;;;;;;;;;;;;;;;;;5046773;28;19967;-55
2022/08/09 02:20:44;;;;;;;;;;;;;;;;;;5047922;28;19932;-53
2022/08/09 02:23:10;;;;;;;;;;;;;;;;;;5047357;28;19925;-55
2022/08/09 02:25:35;;;;;;;;;;;;;;;;;;5046448;28;19935;-52
2022/08/09 02:28:01;;;;;;;;;;;;;;;;;;5046579;28;19917;-53
2022/08/09 02:30:27;;;;;;;;;;;;;;;;;;5046919;28;19975;-52
2022/08/09 02:32:53;;;;;;;;;;;;;;;;;;5046353;28;19925;-57
2022/08/09 02:35:19;;;;;;;;;;;;;;;;;;5047042;28;20404;-51
2022/08/09 02:37:45;;;;;;;;;;;;;;;;;;5046126;28;19921;-61
2022/08/09 02:40:11;;;;;;;;;;;;;;;;;;5046772;28;19951;-55
2022/08/09 02:42:37;;;;;;;;;;;;;;;;;;5046842;28;19964;-54
2022/08/09 02:45:03;;;;;;;;;;;;;;;;;;5046546;28;19927;-51
2022/08/09 02:47:29;;;;;;;;;;;;;;;;;;5046438;28;20388;-57
2022/08/09 02:49:55;;;;;;;;;;;;;;;;;;5046241;28;19921;-51
2022/08/09 02:52:21;;;;;;;;;;;;;;;;;;5046749;28;19982;-55
2022/08/09 02:54:47;;;;;;;;;;;;;;;;;;5045657;28;19927;-57
2022/08/09 02:57:13;;;;;;;;;;;;;;;;;;5047317;28;20046;-56
2022/08/09 02:59:38;;;;;;;;;;;;;;;;;;5046622;28;19979;-55
2022/08/09 03:02:04;;;;;;;;;;;;;;;;;;5045807;28;20120;-52
2022/08/09 03:04:30;;;;;;;;;;;;;;;;;;5046564;28;19967;-55
2022/08/09 03:06:56;;;;;;;;;;;;;;;;;;5043336;28;20529;-55
2022/08/09 03:09:22;;;;;;;;;;;;;;;;;;5045563;28;19924;-56
2022/08/09 03:11:48;;;;;;;;;;;;;;;;;;5046421;28;19924;-51
2022/08/09 03:14:14;;;;;;;;;;;;;;;;;;5046886;28;19924;-55
2022/08/09 03:16:40;;;;;;;;;;;;;;;;;;5045551;28;19931;-53
2022/08/09 03:19:06;;;;;;;;;;;;;;;;;;5027516;28;20326;-53
2022/08/09 03:21:32;;;;;;;;;;;;;;;;;;5044971;28;19928;-51
2022/08/09 03:23:58;;;;;;;;;;;;;;;;;;5044934;28;19928;-52
2022/08/09 03:26:24;;;;;;;;;;;;;;;;;;5046121;28;20304;-52
2022/08/09 03:28:50;;;;;;;;;;;;;;;;;;5026838;28;20271;-57
2022/08/09 03:31:16;;;;;;;;;;;;;;;;;;5046282;28;19920;-56
2022/08/09 03:33:42;;;;;;;;;;;;;;;;;;5045664;28;19925;-57
2022/08/09 03:36:09;;;;;;;;;;;;;;;;;;5044331;28;19925;-52
2022/08/09 03:38:35;;;;;;;;;;;;;;;;;;5045309;28;20566;-52
2022/08/09 03:41:01;;;;;;;;;;;;;;;;;;5045025;28;20059;-53
2022/08/09 03:43:28;;;;;;;;;;;;;;;;;;5044734;28;19928;-52
2022/08/09 03:45:54;;;;;;;;;;;;;;;;;;5027057;28;19925;-52
2022/08/09 03:48:19;;;;;;;;;;;;;;;;;;5045285;28;20273;-53
2022/08/09 03:50:45;;;;;;;;;;;;;;;;;;5036998;28;19924;-61
2022/08/09 03:53:11;;;;;;;;;;;;;;;;;;5035174;28;20274;-55
2022/08/09 03:55:37;;;;;;;;;;;;;;;;;;5034968;28;19935;-53
2022/08/09 03:58:03;;;;;;;;;;;;;;;;;;5032142;28;19925;-55
2022/08/09 04:00:29;;;;;;;;;;;;;;;;;;5036946;28;20015;-52
2022/08/09 04:02:55;;;;;;;;;;;;;;;;;;5034868;28;19924;-53
2022/08/09 04:05:21;;;;;;;;;;;;;;;;;;5028455;28;19986;-53
2022/08/09 04:07:47;;;;;;;;;;;;;;;;;;5033435;28;20279;-56
2022/08/09 04:10:13;;;;;;;;;;;;;;;;;;5030668;28;19968;-53
2022/08/09 04:12:39;;;;;;;;;;;;;;;;;;5032948;28;19931;-56
2022/08/09 04:15:04;;;;;;;;;;;;;;;;;;5036169;28;19925;-52
2022/08/09 04:17:30;;;;;;;;;;;;;;;;;;5032939;28;19928;-51
2022/08/09 04:19:56;;;;;;;;;;;;;;;;;;5029742;28;19990;-51
2022/08/09 04:22:22;;;;;;;;;;;;;;;;;;5039735;28;19921;-54
2022/08/09 04:24:48;;;;;;;;;;;;;;;;;;5037706;28;19929;-50
2022/08/09 04:27:14;;;;;;;;;;;;;;;;;;5018211;28;19924;-54
2022/08/09 04:29:40;;;;;;;;;;;;;;;;;;5036614;28;20011;-55
2022/08/09 04:32:06;;;;;;;;;;;;;;;;;;5033839;28;20200;-51
2022/08/09 04:34:33;;;;;;;;;;;;;;;;;;5034990;28;19930;-55
2022/08/09 04:36:58;;;;;;;;;;;;;;;;;;5034673;28;19987;-56
2022/08/09 04:39:24;;;;;;;;;;;;;;;;;;5032127;28;20396;-54
2022/08/09 04:41:50;;;;;;;;;;;;;;;;;;5035504;28;19931;-52
2022/08/09 04:44:16;;;;;;;;;;;;;;;;;;5032108;28;19925;-60
2022/08/09 04:46:42;;;;;;;;;;;;;;;;;;5034525;28;19951;-55
2022/08/09 04:49:08;;;;;;;;;;;;;;;;;;5033523;28;19931;-53
2022/08/09 04:51:34;;;;;;;;;;;;;;;;;;5034340;28;19931;-52
2022/08/09 04:54:00;;;;;;;;;;;;;;;;;;5035706;28;19928;-55
2022/08/09 04:56:26;;;;;;;;;;;;;;;;;;5030814;28;19972;-51
2022/08/09 04:58:52;;;;;;;;;;;;;;;;;;5031706;28;20373;-54
2022/08/09 05:01:18;;;;;;;;;;;;;;;;;;5031358;28;19990;-54
2022/08/09 05:03:44;;;;;;;;;;;;;;;;;;5033030;28;20309;-51
2022/08/09 05:06:10;;;;;;;;;;;;;;;;;;5035758;28;19921;-54
2022/08/09 05:08:36;;;;;;;;;;;;;;;;;;5035631;28;20473;-51
2022/08/09 05:11:02;;;;;;;;;;;;;;;;;;5027916;28;19925;-52
2022/08/09 05:13:28;;;;;;;;;;;;;;;;;;5035163;28;19928;-52
2022/08/09 05:15:53;;;;;;;;;;;;;;;;;;5031986;28;19978;-53
2022/08/09 05:18:19;;;;;;;;;;;;;;;;;;5033611;28;19942;-53
2022/08/09 05:20:45;;;;;;;;;;;;;;;;;;5034101;28;19920;-57
2022/08/09 05:23:11;;;;;;;;;;;;;;;;;;5024111;28;19928;-54
2022/08/09 05:25:37;;;;;;;;;;;;;;;;;;5028113;28;20608;-61
2022/08/09 05:28:03;;;;;;;;;;;;;;;;;;5033135;28;20442;-57
2022/08/09 05:30:29;;;;;;;;;;;;;;;;;;5027940;28;19921;-56
2022/08/09 05:32:55;;;;;;;;;;;;;;;;;;5032782;28;19921;-52
2022/08/09 05:35:21;;;;;;;;;;;;;;;;;;5032457;28;19925;-53
2022/08/09 05:37:51;;;;;;;;;;;;;;;;;;5039685;28;20361;-53
2022/08/09 05:40:16;;;;;;;;;;;;;;;;;;5029390;28;19920;-61
2022/08/09 05:42:42;;;;;;;;;;;;;;;;;;5032052;28;20569;-52
2022/08/09 05:45:09;;;;;;;;;;;;;;;;;;5034318;28;19928;-55
2022/08/09 05:47:35;;;;;;;;;;;;;;;;;;5032086;28;19929;-52
2022/08/09 05:50:01;;;;;;;;;;;;;;;;;;5033839;28;19929;-56
2022/08/09 05:52:27;;;;;;;;;;;;;;;;;;5029662;28;20044;-53
2022/08/09 05:54:53;;;;;;;;;;;;;;;;;;5036016;28;19925;-56
2022/08/09 05:57:18;;;;;;;;;;;;;;;;;;5033065;28;20360;-57
2022/08/09 05:59:44;;;;;;;;;;;;;;;;;;5023539;28;19967;-54
2022/08/09 06:02:10;;;;;;;;;;;;;;;;;;5026414;28;20012;-54
2022/08/09 06:04:36;;;;;;;;;;;;;;;;;;5015831;28;19968;-56
2022/08/09 06:07:02;;;;;;;;;;;;;;;;;;5033151;28;19943;-51
2022/08/09 06:09:28;;;;;;;;;;;;;;;;;;5032301;28;19974;-51
2022/08/09 06:11:54;;;;;;;;;;;;;;;;;;5036834;28;19925;-52
2022/08/09 06:14:20;;;;;;;;;;;;;;;;;;5035325;28;20374;-59
2022/08/09 06:16:46;;;;;;;;;;;;;;;;;;5033435;28;19931;-58
2022/08/09 06:19:13;;;;;;;;;;;;;;;;;;5040607;28;19956;-53
2022/08/09 06:21:39;;;;;;;;;;;;;;;;;;5038780;28;19929;-52
2022/08/09 06:24:05;;;;;;;;;;;;;;;;;;5016133;28;20232;-52
2022/08/09 06:26:33;;;;;;;;;;;;;;;;;;5040206;28;19924;-53
2022/08/09 06:28:59;;;;;;;;;;;;;;;;;;5037459;28;19943;-52
2022/08/09 06:31:24;;;;;;;;;;;;;;;;;;5036435;28;19921;-56
2022/08/09 06:33:50;;;;;;;;;;;;;;;;;;5032914;28;19983;-57
2022/08/09 06:36:16;;;;;;;;;;;;;;;;;;5035456;28;19928;-61
2022/08/09 06:38:43;;;;;;;;;;;;;;;;;;5034779;28;20459;-54
2022/08/09 06:41:09;;;;;;;;;;;;;;;;;;5038083;28;19936;-52
2022/08/09 06:43:35;;;;;;;;;;;;;;;;;;5035616;28;19928;-55
2022/08/09 06:46:01;;;;;;;;;;;;;;;;;;5039628;28;19936;-54
2022/08/09 06:48:28;;;;;;;;;;;;;;;;;;5036859;28;19967;-54
2022/08/09 06:50:54;;;;;;;;;;;;;;;;;;5029935;28;19925;-53
2022/08/09 06:53:19;;;;;;;;;;;;;;;;;;5033962;28;20270;-53
2022/08/09 06:55:45;;;;;;;;;;;;;;;;;;5034493;28;19931;-60
2022/08/09 06:58:11;;;;;;;;;;;;;;;;;;5036922;28;19925;-56
2022/08/09 07:00:37;;;;;;;;;;;;;;;;;;5036723;28;19928;-50
2022/08/09 07:03:03;;;;;;;;;;;;;;;;;;5036002;28;20523;-54
2022/08/09 07:05:29;;;;;;;;;;;;;;;;;;5033680;28;19971;-52
2022/08/09 07:07:55;;;;;;;;;;;;;;;;;;5031743;28;19929;-53
2022/08/09 07:10:21;;;;;;;;;;;;;;;;;;5026576;28;19980;-57
2022/08/09 07:12:47;;;;;;;;;;;;;;;;;;5033363;28;19920;-56
2022/08/09 07:15:13;;;;;;;;;;;;;;;;;;5036369;28;19944;-54
2022/08/09 07:17:39;;;;;;;;;;;;;;;;;;5021248;28;19965;-57
2022/08/09 07:20:05;;;;;;;;;;;;;;;;;;5026103;28;19929;-53
2022/08/09 07:22:31;;;;;;;;;;;;;;;;;;5014086;28;19932;-52
2022/08/09 07:24:57;;;;;;;;;;;;;;;;;;5035550;28;19921;-55
2022/08/09 07:27:24;;;;;;;;;;;;;;;;;;5039669;28;20289;-52
2022/08/09 07:29:49;;;;;;;;;;;;;;;;;;5036226;28;19924;-53
2022/08/09 07:32:16;;;;;;;;;;;;;;;;;;5027946;28;19932;-53
2022/08/09 07:34:42;;;;;;;;;;;;;;;;;;5031049;28;19929;-55
2022/08/09 07:37:07;;;;;;;;;;;;;;;;;;5021475;28;19927;-53
2022/08/09 07:39:33;;;;;;;;;;;;;;;;;;5027097;28;20293;-56
2022/08/09 07:41:59;;;;;;;;;;;;;;;;;;5015842;28;19925;-50
2022/08/09 07:44:25;;;;;;;;;;;;;;;;;;5021271;28;19971;-55
2022/08/09 07:46:51;;;;;;;;;;;;;;;;;;5011770;28;19921;-51
2022/08/09 07:49:17;;;;;;;;;;;;;;;;;;5017354;28;20416;-55
2022/08/09 07:51:43;;;;;;;;;;;;;;;;;;5046990;28;19921;-54
2022/08/09 07:54:09;;;;;;;;;;;;;;;;;;5046987;28;19925;-56
2022/08/09 07:56:35;;;;;;;;;;;;;;;;;;5046584;28;20398;-54
2022/08/09 07:59:01;;;;;;;;;;;;;;;;;;5046804;28;19967;-53
2022/08/09 08:01:27;;;;;;;;;;;;;;;;;;5047349;28;20304;-53
2022/08/09 08:03:52;;;;;;;;;;;;;;;;;;5046438;28;19978;-55
2022/08/09 08:06:18;;;;;;;;;;;;;;;;;;5047030;28;20015;-55
2022/08/09 08:08:44;;;;;;;;;;;;;;;;;;5029415;28;19927;-56
2022/08/09 08:11:11;;;;;;;;;;;;;;;;;;5045528;28;19924;-64
2022/08/09 08:13:36;;;;;;;;;;;;;;;;;;5046895;28;19982;-52
2022/08/09 08:16:02;;;;;;;;;;;;;;;;;;5037921;28;19921;-58
2022/08/09 08:18:28;;;;;;;;;;;;;;;;;;5026570;28;19967;-53
2022/08/09 08:20:54;;;;;;;;;;;;;;;;;;5026582;28;19925;-56
2022/08/09 08:23:20;;;;;;;;;;;;;;;;;;5027065;28;19947;-51
2022/08/09 08:25:46;;;;;;;;;;;;;;;;;;5008477;28;19921;-60
2022/08/09 08:28:12;;;;;;;;;;;;;;;;;;5040397;28;19969;-54
2022/08/09 08:30:38;;;;;;;;;;;;;;;;;;5045859;28;20127;-57
2022/08/09 08:33:04;;;;;;;;;;;;;;;;;;5045209;28;19925;-55
2022/08/09 08:35:30;;;;;;;;;;;;;;;;;;5043590;28;19921;-55
2022/08/09 08:37:56;;;;;;;;;;;;;;;;;;5033849;28;19928;-55
2022/08/09 08:40:23;;;;;;;;;;;;;;;;;;5034884;28;19929;-54
2022/08/09 08:42:49;;;;;;;;;;;;;;;;;;5039491;28;20339;-57
2022/08/09 08:45:15;;;;;;;;;;;;;;;;;;5028424;28;19925;-53
2022/08/09 08:47:41;;;;;;;;;;;;;;;;;;5033966;28;20127;-55
2022/08/09 08:50:07;;;;;;;;;;;;;;;;;;5044183;28;20015;-53
2022/08/09 08:52:33;;;;;;;;;;;;;;;;;;5044624;28;19928;-54
2022/08/09 08:54:58;;;;;;;;;;;;;;;;;;5044960;28;20335;-53
2022/08/09 08:57:24;;;;;;;;;;;;;;;;;;5045751;28;19974;-53
2022/08/09 08:59:50;;;;;;;;;;;;;;;;;;5044551;28;19931;-57
2022/08/09 09:02:16;;;;;;;;;;;;;;;;;;5046371;28;19963;-56
2022/08/09 09:04:42;;;;;;;;;;;;;;;;;;5045770;28;19927;-54
2022/08/09 09:07:09;;;;;;;;;;;;;;;;;;5044594;28;20313;-56
2022/08/09 09:09:35;;;;;;;;;;;;;;;;;;5044180;28;20321;-57
2022/08/09 09:12:01;;;;;;;;;;;;;;;;;;5045113;28;20343;-53
2022/08/09 09:14:27;;;;;;;;;;;;;;;;;;5044774;28;20404;-58
2022/08/09 09:16:54;;;;;;;;;;;;;;;;;;5043287;28;19920;-53
2022/08/09 09:19:19;;;;;;;;;;;;;;;;;;5045380;28;19921;-56
2022/08/09 09:21:45;;;;;;;;;;;;;;;;;;5044805;28;19929;-57
2022/08/09 09:24:12;;;;;;;;;;;;;;;;;;5045907;28;19929;-53
2022/08/09 09:26:38;;;;;;;;;;;;;;;;;;5044500;28;19921;-56
2022/08/09 09:29:03;;;;;;;;;;;;;;;;;;5045248;28;19925;-54
2022/08/09 09:31:29;;;;;;;;;;;;;;;;;;5046085;28;20404;-57
2022/08/09 09:33:55;;;;;;;;;;;;;;;;;;5045651;28;19925;-56
2022/08/09 09:36:21;;;;;;;0.45;0.30;;;;;;;;;;5044713;28;19925;-56
2022/08/09 09:38:47;;;;;;;;;;;;;;;;;;5044253;28;19920;-56
2022/08/09 09:41:13;;;;;;;;;;;;;;;;;;5045629;28;20288;-58
2022/08/09 09:43:39;;;;;;;;;;;;;;;;;;5044703;28;20015;-53
2022/08/09 09:46:05;;;;;;;;;;;;;;;;;;5042488;28;20777;-55
2022/08/09 09:48:31;;;;;;;;;;;;;;;;;;5048847;28;20069;-54
2022/08/09 09:50:57;;;;;;;;;;;;;;;;;;5049242;28;20042;-55
2022/08/09 09:53:23;;;;;;;;;;;;;;;;;;5049698;28;20047;-53
2022/08/09 09:55:49;;;;;;;;;;;;;;;;;;5048441;28;20015;-57
2022/08/09 09:58:15;;;;;;;;;;;;;;;;;;5050280;28;19940;-54
2022/08/09 10:00:40;;;;;;;;;;;;;;;;;;5049669;28;19947;-55
2022/08/09 10:03:06;;;;;;;;;;;;;;;;;;5048648;28;19924;-53
2022/08/09 10:05:32;;;;;;;;;;;;;;;;;;5049579;28;19921;-57
2022/08/09 10:07:58;;;;;;;;;;;;;;;;;;5049111;28;19924;-51
2022/08/09 10:10:24;;;;;;;;;;;;;;;;;;5048370;28;20335;-54
2022/08/09 10:12:50;;;;;;;;;;;;;;;;;;5048865;28;20002;-53
2022/08/09 10:15:16;;;;;;;;;;;;;;;;;;5049437;28;20015;-57
2022/08/09 10:17:42;;;;;;;;;;;;;;;;;;5049037;28;19928;-51
2022/08/09 10:20:08;;;;;;;;;;;;;;;;;;5048809;28;20392;-53
2022/08/09 10:22:34;;;;;;;;;;;;;;;;;;5049027;28;19943;-54
2022/08/09 10:25:00;;;;;;;;;;;;;;;;;;5048106;28;20399;-53
2022/08/09 10:27:26;;;;;;;;;;;;;;;;;;5049030;28;19924;-58
2022/08/09 10:29:51;;;;;;;;;;;;;;;;;;5048867;28;19978;-57
2022/08/09 10:32:17;;;;;;;;;;;;;;;;;;5048292;28;20340;-53
2022/08/09 10:34:43;;;;;;;;;;;;;;;;;;5049235;28;19921;-56
2022/08/09 10:37:09;;;;;;;;;;;;;;;;;;5048754;28;19967;-56
2022/08/09 10:39:35;;;;;;;;;;;;;;;;;;5047947;28;19983;-55
2022/08/09 10:42:01;;;;;;;;;;;;;;;;;;5039039;28;19931;-55
2022/08/09 10:44:29;;;;;;;;;;;;;;;;;;5037276;28;19924;-56
2022/08/09 10:46:55;;;;;;;;;;;;;;;;;;5032489;28;19921;-55
2022/08/09 10:49:21;;;;;;;;;;;;;;;;;;5028720;28;19925;-53
2022/08/09 10:51:46;;;;;;;;;;;;;;;;;;5027756;28;19929;-62
2022/08/09 10:54:13;;;;;;;;;;;;;;;;;;5029182;28;19947;-53
2022/08/09 10:56:39;;;;;;;;;;;;;;;;;;5028558;28;19978;-55
2022/08/09 10:59:04;;;;;;;;;;;;;;;;;;5029560;28;19924;-57
2022/08/09 11:01:30;;;;;;;;;;;;;;;;;;5040822;28;20559;-57
2022/08/09 11:03:56;;;;;;;;;;;;;;;;;;5046319;28;19921;-57
2022/08/09 11:06:24;;;;;;;;;;;;;;;;;;5046893;28;19932;-57
2022/08/09 11:08:50;;;;;;;;;;;;;;;;;;5047360;28;19921;-53
2022/08/09 11:11:16;;;;;;;;;;;;;;;;;;5030458;28;19932;-63
2022/08/09 11:13:42;;;;;;;;;;;;;;;;;;5048146;28;20308;-53
2022/08/09 11:16:08;;;;;;;;;;;;;;;;;;5047208;28;20090;-56
2022/08/09 11:18:34;;;;;;;;;;;;;;;;;;5046933;28;20396;-55
2022/08/09 11:21:00;;;;;;;;;;;;;;;;;;5045699;28;19921;-55
2022/08/09 11:23:25;;;;;;;;;;;;;;;;;;5046963;28;19925;-59
2022/08/09 11:25:51;;;;;;;;;;;;;;;;;;5047502;28;19974;-55
2022/08/09 11:28:17;;;;;;;;;;;;;;;;;;5047280;28;19921;-55
2022/08/09 11:30:43;;;;;;;;;;;;;;;;;;5048155;28;19920;-56
2022/08/09 11:33:09;;;;;;;;;;;;;;;;;;5047538;28;20351;-52
2022/08/09 11:35:35;;;;;;;;;;;;;;;;;;5046999;28;20277;-56
2022/08/09 11:38:01;;;;;;;;;;;;;;;;;;5047587;28;19920;-53
2022/08/09 11:40:28;;;;;;;;;;;;;;;;;;5047924;28;19920;-57
2022/08/09 11:42:54;;;;;;;;;;;;;;;;;;5046831;28;19924;-57
2022/08/09 11:45:20;;;;;;;;;;;;;;;;;;5047596;28;19924;-53
2022/08/09 11:47:46;;;;;;;;;;;;;;;;;;5047446;28;19924;-59
2022/08/09 11:50:12;;;;;;;;;;;;;;;;;;5047253;28;19924;-53
2022/08/09 11:52:38;;;;;;;;;;;;;;;;;;5047157;28;20289;-57
2022/08/09 11:55:04;;;;;;;;;;;;;;;;;;5028569;28;19947;-55
2022/08/09 11:57:30;;;;;;;;;;;;;;;;;;5047353;28;19995;-56
2022/08/09 11:59:56;;;;;;;;;;;;;;;;;;5047033;28;19925;-55
2022/08/09 12:02:22;;;;;;;;;;;;;;;;;;5046698;28;19971;-53
2022/08/09 12:04:48;;;;;;;;;;;;;;;;;;5046925;28;20343;-53
2022/08/09 12:07:14;;;;;;;;;;;;;;;;;;5047528;28;19944;-54
2022/08/09 12:09:42;;;;;;;;;;;;;;;;;;5045406;28;20377;-53
2022/08/09 12:12:14;;;;;;;;;;;;;;;;;;5046874;28;19927;-55
2022/08/09 12:14:41;;;;;;;;;;;;;;;;;;5047115;28;20075;-53
2022/08/09 12:17:07;;;;;;;;;;;;;;;;;;5046013;28;20116;-54
2022/08/09 12:19:34;;;;;;;;;;;;;;;;;;5046817;28;19928;-57
2022/08/09 12:22:00;;;;;;;;;;;;;;;;;;5046752;28;19927;-54
2022/08/09 12:24:26;;;;;;;;;;;;;;;;;;5046264;28;19924;-54
2022/08/09 12:26:55;;;;;;;;;;;;;;;;;;5046452;28;19925;-54
2022/08/09 12:29:21;;;;;;;;;;;;;;;;;;5046894;28;19931;-54
2022/08/09 12:31:48;;;;;;;;;;;;;;;;;;5045841;28;19921;-63
2022/08/09 12:34:14;;;;;;;;;;;;;;;;;;5047163;28;19924;-58
2022/08/09 12:36:40;;;;;;;;;;;;;;;;;;5046552;28;20336;-51
2022/08/09 12:39:05;;;;;;;;;;;;;;;;;;5044250;28;20341;-57
2022/08/09 12:41:31;;;;;;;;;;;;;;;;;;5029147;28;19925;-54
2022/08/09 12:43:57;;;;;;;;;;;;;;;;;;5043687;28;20420;-55
2022/08/09 12:46:24;;;;;;;;;;;;;;;;;;5045717;28;20529;-53
2022/08/09 12:48:49;;;;;;;;;;;;;;;;;;5045742;28;19921;-53
2022/08/09 12:51:15;;;;;;;;;;;;;;;;;;5046244;28;19933;-54
2022/08/09 12:53:41;;;;;;;;;;;;;;;;;;5046956;28;20358;-53
2022/08/09 12:56:08;;;;;;;;;;;;;;;;;;5046242;28;19931;-54
2022/08/09 12:58:34;;;;;;;;;;;;;;;;;;5045688;28;19975;-53
2022/08/09 13:01:01;;;;;;;;;;;;;;;;;;5045916;28;19976;-57
2022/08/09 13:03:27;;;;;;;;;;;;;;;;;;5044426;28;19920;-56
2022/08/09 13:05:53;;;;;;;;;;;;;;;;;;5036464;28;20015;-54
2022/08/09 13:08:19;;;;;;;;;;;;;;;;;;5033374;28;19971;-57
2022/08/09 13:10:45;;;;;;;;;;;;;;;;;;5037947;28;19929;-57
2022/08/09 13:13:11;;;;;;;;;;;;;;;;;;5034546;28;19924;-54
2022/08/09 13:15:37;;;;;;;;;;;;;;;;;;5031386;28;19994;-57
2022/08/09 13:18:03;;;;;;;;;;;;;;;;;;5033160;28;19980;-55
2022/08/09 13:20:29;;;;;;;;;;;;;;;;;;5033752;28;19924;-56
2022/08/09 13:22:55;;;;;;;;;;;;;;;;;;5047578;28;19975;-52
2022/08/09 13:25:21;;;;;;;;;;;;;;;;;;5045917;28;19924;-52
2022/08/09 13:27:47;;;;;;;;;;;;;;;;;;5048641;28;19927;-53
2022/08/09 13:30:13;;;;;;;;;;;;;;;;;;5048137;28;20285;-53
2022/08/09 13:32:39;;;;;;;;;;;;;;;;;;5047737;28;19975;-54
2022/08/09 13:35:05;;;;;;;;;;;;;;;;;;5048598;28;20239;-53
2022/08/09 13:37:31;;;;;;;;;;;;;;;;;;5049511;28;19925;-53
2022/08/09 13:39:57;;;;;;;;;;;;;;;;;;5040895;28;19928;-51
2022/08/09 13:42:23;;;;;;;;;;;;;;;;;;5043225;28;20289;-56
2022/08/09 13:44:49;;;;;;;;;;;;;;;;;;5045540;28;19943;-50
2022/08/09 13:47:16;;;;;;;;;;;;;;;;;;5048750;28;19921;-55
2022/08/09 13:49:42;;;;;;;;;;;;;;;;;;5048423;28;20011;-55
2022/08/09 13:52:08;;;;;;;0.20;0.20;;;;;;;;;;5048819;28;20046;-53
2022/08/09 13:54:34;;;;;;;;;;;;;;;;;;5048226;28;20373;-57
2022/08/09 13:56:59;;;;;;;;;;;;;;;;;;5048378;28;19935;-52
2022/08/09 13:59:25;;;;;;;;;;;;;;;;;;5048017;28;19925;-55
2022/08/09 14:01:51;;;;;;;;;;;;;;;;;;5026098;28;19971;-52
2022/08/09 14:04:17;;;;;;;;;;;;;;;;;;5048468;28;20021;-56
2022/08/09 14:06:52;;;;;;;3.40;0.50;;;;;;;;;;5041846;28;19935;-53
2022/08/09 14:09:18;;;;;;;;;;;;;;;;;;5048065;28;19932;-55
2022/08/09 14:11:43;;;;;;;;;;;;;;;;;;5048975;28;19929;-53
2022/08/09 14:14:09;;;;;;;;;;;;;;;;;;5047483;28;19986;-58
2022/08/09 14:16:35;;;;;;;;;;;;;;;;;;5047190;28;20213;-56
2022/08/09 14:19:01;;;;;;;;;;;;;;;;;;5039667;28;19929;-55
2022/08/09 14:21:27;;;;;;;;;;;;;;;;;;5040551;28;19929;-53
2022/08/09 14:23:53;;;;;;;;;;;;;;;;;;5043789;28;19932;-59
2022/08/09 14:26:20;;;;;;;;;;;;;;;;;;5048504;28;20293;-54
2022/08/09 14:28:46;;;;;;;;;;;;;;;;;;5048061;28;19929;-62
2022/08/09 14:31:12;;;;;;;;;;;;;;;;;;5046019;28;20860;-54
2022/08/09 14:33:38;;;;;;;;;;;;;;;;;;5036277;28;19924;-59
2022/08/09 14:36:04;;;;;;;;;;;;;;;;;;5036037;28;19971;-53
2022/08/09 14:38:29;;;;;;;;;;;;;;;;;;5036840;28;20331;-55
2022/08/09 14:40:55;;;;;;;;;;;;;;;;;;5035320;28;19929;-57
2022/08/09 14:43:22;;;;;;;;;;;;;;;;;;5037224;28;19925;-54
2022/08/09 14:45:48;;;;;;;;;;;;;;;;;;5033311;28;20015;-55
2022/08/09 14:48:14;;;;;;;;;;;;;;;;;;5036658;28;20016;-53
2022/08/09 14:50:39;;;;;;;;;;;;;;;;;;5035218;28;19936;-55
2022/08/09 14:53:05;;;;;;;;;;;;;;;;;;5035803;28;19933;-55
2022/08/09 14:55:31;;;;;;;;;;;;;;;;;;5033615;28;19925;-54
2022/08/09 14:57:57;;;;;;;;;;;;;;;;;;5036665;28;19932;-58
2022/08/09 15:00:23;;;;;;;;;;;;;;;;;;5034272;28;19972;-55
2022/08/09 15:02:49;;;;;;;;;;;;;;;;;;5033587;28;19928;-53
2022/08/09 15:05:15;;;;;;;;;;;;;;;;;;5037539;28;19929;-62
2022/08/09 15:07:42;;;;;;;;;;;;;;;;;;5030958;28;20440;-56
2022/08/09 15:10:08;;;;;;;;;;;;;;;;;;5033414;28;19940;-56
2022/08/09 15:12:34;;;;;;;0.35;0.20;;;;;;;;;;5036083;28;19932;-53
2022/08/09 15:15:00;;;;;;;;;;;;;;;;;;5034427;28;20077;-57
2022/08/09 15:17:26;;;;;;;;;;;;;;;;;;5034085;28;20022;-57
2022/08/09 15:19:53;;;;;;;0.10;0.10;;;;;;;;;;5035159;28;20458;-54
2022/08/09 15:22:19;;;;;;;1.02;0.10;;;;;;;;;;5031153;28;20099;-54
2022/08/09 15:24:46;;;;;;;0.25;0.20;;;;;;;;;;5035295;28;20080;-58
2022/08/09 15:27:12;;;;;;;0.25;0.10;;;;;;;;;;5035037;28;20056;-52
2022/08/09 15:29:38;;;;;;;0.85;0.20;;;;;;;;;;5040770;28;20102;-53
2022/08/09 15:32:04;;;;;;;0.10;0.10;;;;;;;;;;5036819;28;20494;-58
2022/08/09 15:34:30;;;;;;;0.35;0.17;;;;;;;;;;5032692;28;20041;-55
2022/08/09 15:36:57;;;;;;;0.10;0.10;;;;;;;;;;5032859;28;20095;-54
2022/08/09 15:39:23;;;;;;;0.10;0.10;;;;;;;;;;5029939;28;20447;-54
2022/08/09 15:41:49;;;;;;;0.15;0.15;;;;;;;;;;5034570;28;20045;-53
2022/08/09 15:44:15;;;;;;;0.22;0.20;;;;;;;;;;5039626;28;20041;-53
2022/08/09 15:46:41;;;;;;;0.40;0.20;;;;;;;;;;5038702;28;20108;-55
2022/08/09 15:49:07;;;;;;;0.30;0.10;;;;;;;;;;5035837;28;20040;-54
2022/08/09 15:51:33;;;;;;;0.50;0.20;;;;;;;;;;5041457;28;20055;-58
2022/08/09 15:54:00;;;;;;;0.17;0.10;;;;;;;;;;5037960;28;20085;-60
2022/08/09 15:56:26;;;;;;;0.10;0.10;;;;;;;;;;5026277;28;20379;-54
2022/08/09 15:58:52;;;;;;;0.10;0.10;;;;;;;;;;5036801;28;20087;-60
2022/08/09 16:01:19;;;;;;;0.68;0.28;;;;;;;;;;5019644;28;20052;-54
2022/08/09 16:03:46;;;;;;;0.10;0.10;;;;;;;;;;5040340;28;20066;-57
2022/08/09 16:06:12;;;;;;;0.20;0.10;;;;;;;;;;5034518;28;20045;-59
2022/08/09 16:08:41;;;;;;;0.25;0.10;;;;;;;;;;5032316;28;20045;-57
2022/08/09 16:11:07;;;;;;;1.55;0.10;;;;;;;;;;5045405;28;20107;-54
2022/08/09 16:13:33;;;;;;;0.25;0.20;;;;;;;;;;5046145;28;20040;-60
2022/08/09 16:15:59;;;;;;;1.77;0.30;;;;;;;;;;5042964;28;20048;-59
2022/08/09 16:18:25;;;;;;;0.10;0.10;;;;;;;;;;5045939;28;20642;-56
2022/08/09 16:20:51;;;;;;;0.10;0.10;;;;;;;;;;5044452;28;20045;-57
2022/08/09 16:23:17;;;;;;;0.30;0.17;;;;;;;;;;5045843;28;20060;-58
2022/08/09 16:25:43;;;;;;;0.10;0.10;;;;;;;;;;5030830;28;20124;-57